Time;durP1;ratioP1;P1;durP2;ratioP2;P2;SDS_P1;SDS_P2;PMS_P1;PMS_P2;Temp;Humidity;BMP_temperature;BMP_pressure;BME280_temperature;BME280_humidity;BME280_pressure;Samples;Min_cycle;Max_cycle;Signal;HPM_P1;HPM_P2
2022/07/20 00:00:46;;;;;;;7.55;6.78;;;;;;;20.07;49.07;101330.92;1651909;85;20998;-78
2022/07/20 00:03:12;;;;;;;9.00;6.28;;;;;;;20.05;49.16;101337.16;1655958;86;21093;-78
2022/07/20 00:05:41;;;;;;;7.93;6.57;;;;;;;20.01;49.23;101340.38;1657598;85;21124;-78
2022/07/20 00:08:08;;;;;;;10.08;6.60;;;;;;;19.94;49.35;101345.50;1659040;86;21316;-78
2022/07/20 00:13:20;;;;;;;7.20;6.50;;;;;;;19.88;49.60;101337.89;1650997;86;20939;-78
2022/07/20 00:15:46;;;;;;;6.80;6.10;;;;;;;19.85;49.70;101338.02;1659378;86;20931;-78
2022/07/20 00:18:13;;;;;;;9.45;6.10;;;;;;;19.84;49.80;101335.00;1658633;86;20896;-78
2022/07/20 00:20:39;;;;;;;7.87;6.20;;;;;;;19.78;49.91;101334.80;1659321;85;21333;-78
2022/07/20 00:23:05;;;;;;;7.22;5.70;;;;;;;19.76;49.94;101337.10;1659075;85;20966;-78
2022/07/20 00:25:31;;;;;;;7.10;5.50;;;;;;;19.70;50.02;101339.55;1659664;86;20934;-79
2022/07/20 00:27:57;;;;;;;7.23;6.53;;;;;;;19.67;50.11;101338.37;1659450;86;20895;-79
2022/07/20 00:30:24;;;;;;;6.87;6.27;;;;;;;19.59;50.17;101334.36;1659548;86;22396;-78
2022/07/20 00:32:51;;;;;;;8.28;6.95;;;;;;;19.56;50.24;101335.34;1615869;87;20967;-78
2022/07/20 00:35:18;;;;;;;6.87;6.28;;;;;;;19.52;50.42;101339.47;1660069;85;20935;-78
2022/07/20 00:37:45;;;;;;;7.70;6.93;;;;;;;19.44;50.47;101335.36;1641976;87;20927;-78
2022/07/20 00:40:12;;;;;;;;;;;;;;;19.36;50.71;101337.44;1644379;87;20971;-78
2022/07/20 00:42:39;;;;;;;8.53;6.15;;;;;;;19.36;51.18;101336.59;1642209;86;20134;-78
2022/07/20 00:45:08;;;;;;;7.17;6.25;;;;;;;19.33;50.77;101334.09;1641979;87;21508;-78
2022/07/20 00:47:34;;;;;;;6.58;5.90;;;;;;;19.32;50.85;101335.00;1644545;86;20934;-78
2022/07/20 00:50:01;;;;;;;8.25;6.22;;;;;;;19.25;50.96;101330.47;1640030;87;20922;-78
2022/07/20 00:52:27;;;;;;;6.90;6.27;;;;;;;19.16;51.04;101325.17;1642110;86;21424;-78
2022/07/20 00:54:55;;;;;;;8.08;6.05;;;;;;;19.13;51.19;101323.12;1641834;86;20950;-78
2022/07/20 00:57:21;;;;;;;8.05;6.10;;;;;;;19.13;51.30;101322.67;1663408;86;20923;-78
2022/07/20 00:59:47;;;;;;;6.90;6.27;;;;;;;19.13;51.35;101318.73;1642191;87;20966;-78
2022/07/20 01:02:15;;;;;;;7.05;5.83;;;;;;;19.16;51.45;101317.76;1641760;86;20947;-78
2022/07/20 01:04:41;;;;;;;6.85;6.03;;;;;;;19.16;51.51;101322.55;1621836;87;21100;-78
2022/07/20 01:07:10;;;;;;;6.78;5.58;;;;;;;19.10;51.56;101316.70;1621236;87;21034;-79
2022/07/20 01:09:36;;;;;;;7.37;6.05;;;;;;;19.09;51.68;101321.54;1657715;85;21049;-78
2022/07/20 01:12:03;;;;;;;7.47;6.17;;;;;;;19.07;51.73;101324.22;1661904;86;20927;-78
2022/07/20 01:14:29;;;;;;;9.63;5.62;;;;;;;18.99;51.81;101317.12;1639853;87;21085;-78
2022/07/20 01:16:55;;;;;;;8.23;6.20;;;;;;;18.98;51.99;101314.56;1640205;86;20993;-78
2022/07/20 01:19:21;;;;;;;6.23;5.63;;;;;;;19.00;52.00;101315.35;1640214;86;20943;-78
2022/07/20 01:21:47;;;;;;;6.67;5.90;;;;;;;18.95;52.07;101315.98;1639948;87;20946;-78
2022/07/20 01:24:13;;;;;;;6.17;5.57;;;;;;;18.90;52.12;101316.17;1639827;87;21097;-78
2022/07/20 01:26:43;;;;;;;6.47;5.78;;;;;;;18.83;52.25;101316.02;1640134;87;21383;-78
2022/07/20 01:29:10;;;;;;;9.28;5.67;;;;;;;18.79;52.31;101320.97;1641727;86;21447;-79
2022/07/20 01:31:36;;;;;;;6.80;6.05;;;;;;;18.74;52.41;101320.30;1663221;86;20907;-79
2022/07/20 01:34:03;;;;;;;6.40;5.73;;;;;;;18.70;52.51;101326.14;1641895;87;20959;-79
2022/07/20 01:36:29;;;;;;;9.70;6.40;;;;;;;18.70;52.62;101319.59;1632375;86;21526;-79
2022/07/20 01:38:56;;;;;;;7.42;6.72;;;;;;;18.72;52.64;101320.36;1626865;88;20933;-79
2022/07/20 01:41:23;;;;;;;11.38;6.30;;;;;;;18.69;52.72;101323.58;1625088;87;21101;-79
2022/07/20 01:43:52;;;;;;;12.85;5.97;;;;;;;18.68;52.82;101323.18;1623791;87;21044;-78
2022/07/20 01:46:18;;;;;;;7.93;6.00;;;;;;;18.69;52.93;101319.19;1629365;86;20985;-78
2022/07/20 01:48:44;;;;;;;9.03;6.00;;;;;;;18.68;52.99;101307.00;1625585;86;21046;-78
2022/07/20 01:51:10;;;;;;;9.50;6.03;;;;;;;18.67;53.05;101314.92;1625294;88;21067;-78
2022/07/20 01:53:36;;;;;;;7.72;6.28;;;;;;;18.66;53.15;101307.98;1671498;85;21120;-78
2022/07/20 01:56:03;;;;;;;10.80;6.93;;;;;;;18.70;53.21;101308.26;1646917;85;21124;-77
2022/07/20 01:58:29;;;;;;;7.15;6.35;;;;;;;18.68;53.23;101304.39;1655545;85;21512;-77
2022/07/20 02:00:55;;;;;;;9.03;6.73;;;;;;;18.54;53.26;101290.93;1674227;85;21001;-77
2022/07/20 02:03:21;;;;;;;8.53;6.22;;;;;;;18.62;53.40;101310.31;1615259;87;21141;-77
2022/07/20 02:05:47;;;;;;;8.13;6.77;;;;;;;18.59;53.47;101307.78;1674564;84;21126;-77
2022/07/20 02:08:14;;;;;;;12.18;7.47;;;;;;;18.55;53.59;101303.57;1674250;84;28162;-77
2022/07/20 02:10:40;;;;;;;9.43;7.12;;;;;;;18.49;53.70;101303.34;1674360;84;21060;-78
2022/07/20 02:13:07;;;;;;;11.90;7.67;;;;;;;18.47;53.86;101299.48;1674329;84;21111;-78
2022/07/20 02:18:19;;;;;;;9.17;7.03;;;;;;;18.57;53.99;101299.13;1663595;85;21546;-79
2022/07/20 02:20:45;;;;;;;9.60;7.15;;;;;;;18.59;54.08;101302.09;1674110;85;21053;-79
2022/07/20 02:23:11;;;;;;;9.90;7.50;;;;;;;18.64;54.17;101302.80;1640429;87;21600;-79
2022/07/20 02:25:38;;;;;;;11.43;6.93;;;;;;;18.67;54.18;101296.59;1674328;84;21172;-79
2022/07/20 02:28:06;;;;;;;14.15;7.83;;;;;;;18.65;54.27;101302.34;1641327;86;21037;-78
2022/07/20 02:30:40;;;;;;;17.15;7.45;;;;;;;18.66;54.38;101298.81;1674083;85;21060;-78
2022/07/20 02:33:09;;;;;;;13.40;7.03;;;;;;;18.68;54.45;101301.77;1674069;84;21117;-78
2022/07/20 02:35:35;;;;;;;9.43;7.10;;;;;;;18.68;54.51;101303.08;1673602;83;21573;-78
2022/07/20 02:38:02;;;;;;;10.37;7.70;;;;;;;18.69;54.56;101307.86;1634550;87;21465;-78
2022/07/20 02:40:28;;;;;;;11.57;7.37;;;;;;;18.68;54.64;101310.08;1669323;85;20989;-78
2022/07/20 02:42:54;;;;;;;11.07;7.70;;;;;;;18.63;54.76;101305.02;1669339;85;21060;-78
2022/07/20 02:45:21;;;;;;;11.13;7.53;;;;;;;18.65;54.83;101308.89;1669397;84;21089;-78
2022/07/20 02:47:48;;;;;;;10.58;7.45;;;;;;;18.65;54.91;101306.27;1669243;85;21319;-78
2022/07/20 02:50:15;;;;;;;9.10;6.62;;;;;;;18.66;55.01;101299.66;1668881;85;21164;-78
2022/07/20 02:52:44;;;;;;;8.65;6.92;;;;;;;18.66;55.04;101304.91;1635723;87;21584;-78
2022/07/20 02:55:12;;;;;;;17.03;7.63;;;;;;;18.63;55.11;101307.64;1660550;85;20941;-78
2022/07/20 02:57:38;;;;;;;9.20;7.00;;;;;;;18.61;55.24;101304.22;1658912;85;20957;-78
2022/07/20 03:00:07;;;;;;;12.93;7.53;;;;;;;18.63;55.33;101298.92;1636020;87;20947;-78
2022/07/20 03:02:33;;;;;;;14.47;7.85;;;;;;;18.65;55.39;101302.34;1670570;85;20974;-78
2022/07/20 03:05:00;;;;;;;11.65;7.08;;;;;;;18.67;55.49;101299.20;1670781;85;20969;-78
2022/07/20 03:07:26;;;;;;;10.77;7.00;;;;;;;18.68;55.49;101303.08;1670947;85;20914;-78
2022/07/20 03:09:55;;;;;;;11.73;7.00;;;;;;;18.69;55.60;101307.41;1670759;85;20887;-78
2022/07/20 03:12:21;;;;;;;10.37;6.93;;;;;;;18.75;55.64;101307.59;1670573;85;20926;-78
2022/07/20 03:14:48;;;;;;;13.80;7.37;;;;;;;18.78;55.67;101310.09;1643233;86;20911;-78
2022/07/20 03:17:16;;;;;;;11.90;7.25;;;;;;;18.79;55.69;101306.10;1668737;85;20958;-78
2022/07/20 03:19:45;;;;;;;11.78;7.42;;;;;;;18.78;55.75;101309.64;1670856;84;20942;-78
2022/07/20 03:22:14;;;;;;;10.20;7.10;;;;;;;18.78;55.83;101308.78;1634868;87;21351;-78
2022/07/20 03:24:40;;;;;;;7.57;6.70;;;;;;;18.78;55.88;101311.41;1669347;85;20985;-78
2022/07/20 03:27:06;;;;;;;12.68;7.08;;;;;;;18.80;55.94;101309.58;1633940;87;22086;-78
2022/07/20 03:29:33;;;;;;;8.35;7.28;;;;;;;18.82;55.97;101314.30;1669164;85;21005;-78
2022/07/20 03:31:59;;;;;;;11.80;6.58;;;;;;;18.85;56.04;101315.03;1669197;84;21136;-78
2022/07/20 03:34:25;;;;;;;10.95;7.30;;;;;;;18.91;56.01;101318.34;1668973;85;21022;-78
2022/07/20 03:36:55;;;;;;;10.90;7.12;;;;;;;18.92;56.08;101310.41;1637552;84;21046;-78
2022/07/20 03:39:21;;;;;;;6.65;5.83;;;;;;;18.94;56.11;101312.52;1674139;84;21273;-78
2022/07/20 03:41:47;;;;;;;12.78;6.92;;;;;;;18.91;56.17;101316.56;1635433;86;21104;-78
2022/07/20 03:44:13;;;;;;;7.90;6.70;;;;;;;18.91;56.20;101318.34;1646993;86;20922;-78
2022/07/20 03:46:39;;;;;;;10.67;7.70;;;;;;;18.88;56.29;101323.23;1667953;85;21915;-78
2022/07/20 03:49:08;;;;;;;11.00;7.10;;;;;;;18.78;56.34;101300.47;1673580;84;21812;-78
2022/07/20 03:51:37;;;;;;;9.20;6.58;;;;;;;18.91;56.37;101326.20;1674157;84;21048;-78
2022/07/20 03:54:02;;;;;;;7.83;6.75;;;;;;;18.89;56.43;101333.27;1673763;85;21001;-78
2022/07/20 03:56:41;;;;;;;7.67;6.83;;;;;;;18.91;56.53;101332.30;1641434;87;21045;-78
2022/07/20 03:59:10;;;;;;;8.15;6.85;;;;;;;18.97;56.57;101333.36;1674103;85;20964;-78
2022/07/20 04:01:36;;;;;;;9.73;6.75;;;;;;;18.98;56.62;101332.45;1641592;87;22362;-78
2022/07/20 04:04:03;;;;;;;7.62;6.75;;;;;;;18.98;56.65;101336.38;1674428;85;21147;-78
2022/07/20 04:06:29;;;;;;;;;;;;;;;18.97;56.73;101332.05;1643358;87;21065;-78
2022/07/20 04:08:56;;;;;;;8.33;7.53;;;;;;;18.99;57.11;101327.60;1641172;86;23892;-78
2022/07/20 04:11:22;;;;;;;7.50;6.62;;;;;;;18.97;56.80;101326.81;1673254;85;21072;-78
2022/07/20 04:13:48;;;;;;;13.10;6.42;;;;;;;19.01;56.95;101323.61;1641327;87;21125;-78
2022/07/20 04:16:14;;;;;;;11.27;7.20;;;;;;;19.08;57.03;101331.63;1647191;85;21460;-78
2022/07/20 04:18:41;;;;;;;9.58;6.25;;;;;;;19.20;57.03;101327.67;1646818;85;21810;-78
2022/07/20 04:21:07;;;;;;;10.38;6.30;;;;;;;19.28;57.10;101334.27;1641237;87;21117;-78
2022/07/20 04:23:33;;;;;;;7.03;6.33;;;;;;;19.38;57.10;101338.23;1643884;85;21014;-78
2022/07/20 04:26:00;;;;;;;7.17;6.47;;;;;;;19.43;57.10;101333.66;1642679;85;49841;-78
2022/07/20 04:28:26;;;;;;;15.50;6.43;;;;;;;19.47;57.17;101336.55;1673995;84;21088;-78
2022/07/20 04:30:52;;;;;;;10.33;6.63;;;;;;;19.49;57.24;101337.80;1674023;84;21109;-78
2022/07/20 04:33:18;;;;;;;6.77;6.17;;;;;;;19.55;57.25;101340.66;1673996;84;21556;-78
2022/07/20 04:35:45;;;;;;;9.08;6.45;;;;;;;19.60;57.31;101340.86;1673689;85;21478;-78
2022/07/20 04:38:17;;;;;;;8.48;6.37;;;;;;;19.65;57.35;101345.91;1703713;82;20997;-78
2022/07/20 04:40:45;;;;;;;7.45;6.75;;;;;;;19.70;57.43;101345.27;1680819;85;21585;-78
2022/07/20 04:43:12;;;;;;;15.03;6.63;;;;;;;19.73;57.49;101342.52;1680961;85;21588;-78
2022/07/20 04:45:38;;;;;;;9.55;6.50;;;;;;;19.80;57.51;101343.92;1680949;85;21442;-78
2022/07/20 04:48:13;;;;;;;7.80;7.10;;;;;;;19.87;57.60;101341.89;1680882;85;20878;-78
2022/07/20 04:50:39;;;;;;;7.33;6.63;;;;;;;19.95;57.63;101339.79;1647619;87;20887;-78
2022/07/20 04:53:08;;;;;;;7.97;6.70;;;;;;;20.05;57.68;101345.89;1638153;87;21476;-79
2022/07/20 04:55:34;;;;;;;6.83;6.13;;;;;;;20.13;57.71;101351.66;1628885;87;20898;-79
2022/07/20 04:58:00;;;;;;;7.63;6.70;;;;;;;20.23;57.70;101347.31;1636844;85;20916;-79
2022/07/20 05:00:26;;;;;;;9.97;6.83;;;;;;;20.34;57.74;101351.60;1632692;87;20967;-79
2022/07/20 05:02:52;;;;;;;8.80;6.17;;;;;;;20.41;57.75;101347.35;1638130;86;21455;-79
2022/07/20 05:05:19;;;;;;;7.33;6.55;;;;;;;20.54;57.80;101352.05;1636660;86;21486;-78
2022/07/20 05:07:48;;;;;;;9.03;6.25;;;;;;;20.67;57.81;101353.20;1646118;86;21117;-78
2022/07/20 05:10:14;;;;;;;6.95;6.20;;;;;;;20.76;57.82;101351.00;1636048;86;21661;-78
2022/07/20 05:12:41;;;;;;;9.85;6.20;;;;;;;20.90;57.83;101352.09;1632478;87;21537;-78
2022/07/20 05:15:08;;;;;;;14.53;5.93;;;;;;;21.10;57.91;101344.12;1636736;87;21546;-78
2022/07/20 05:17:34;;;;;;;9.88;6.80;;;;;;;21.47;57.93;101352.39;1639261;85;21086;-78
2022/07/20 05:20:08;;;;;;;10.10;6.30;;;;;;;22.01;57.93;101357.09;1682278;83;21120;-78
2022/07/20 05:22:34;;;;;;;9.55;6.80;;;;;;;22.61;57.83;101359.59;1645720;87;21576;-78
2022/07/20 05:25:00;;;;;;;15.00;6.63;;;;;;;23.21;57.72;101355.81;1635330;85;21200;-78
2022/07/20 05:27:32;;;;;;;7.62;5.78;;;;;;;23.78;57.52;101353.84;1608032;87;21078;-78
2022/07/20 05:29:58;;;;;;;14.45;5.62;;;;;;;24.35;57.38;101358.26;1636325;86;21153;-78
2022/07/20 05:32:24;;;;;;;8.00;6.83;;;;;;;24.92;57.23;101352.02;1636413;86;21069;-78
2022/07/20 05:34:54;;;;;;;29.40;7.10;;;;;;;25.42;56.88;101355.35;1633131;85;21575;-78
2022/07/20 05:37:20;;;;;;;9.48;6.25;;;;;;;25.93;56.75;101359.42;1641170;86;21061;-78
2022/07/20 05:39:47;;;;;;;9.10;5.72;;;;;;;26.36;56.52;101356.83;1650170;85;21557;-78
2022/07/20 05:42:13;;;;;;;10.68;6.53;;;;;;;26.84;56.24;101361.38;1667036;85;21156;-78
2022/07/20 05:44:39;;;;;;;6.65;5.90;;;;;;;27.22;55.85;101355.92;1668918;85;28108;-78
2022/07/20 05:47:11;;;;;;;11.57;6.20;;;;;;;27.57;55.67;101359.91;1658798;85;21463;-78
2022/07/20 05:49:37;;;;;;;8.25;5.95;;;;;;;27.88;55.44;101357.97;1669216;85;21517;-78
2022/07/20 05:52:06;;;;;;;6.40;5.85;;;;;;;28.26;55.19;101357.66;1667653;84;21795;-78
2022/07/20 05:54:32;;;;;;;9.33;6.75;;;;;;;28.61;54.87;101354.84;1649848;86;21076;-78
2022/07/20 05:56:59;;;;;;;7.47;6.37;;;;;;;28.93;54.64;101358.94;1650226;86;21013;-79
2022/07/20 05:59:25;;;;;;;10.58;5.67;;;;;;;29.27;54.26;101358.80;1650199;85;20966;-79
2022/07/20 06:01:53;;;;;;;7.92;5.70;;;;;;;29.56;54.03;101361.25;1655023;85;21093;-79
2022/07/20 06:04:20;;;;;;;7.17;4.80;;;;;;;29.90;53.73;101359.70;1658204;84;21065;-79
2022/07/20 06:06:46;;;;;;;9.05;5.33;;;;;;;30.21;53.33;101365.91;1629562;86;20993;-79
2022/07/20 06:09:12;;;;;;;7.12;5.70;;;;;;;30.51;52.95;101359.23;1650070;85;25326;-77
2022/07/20 06:11:41;;;;;;;8.85;5.53;;;;;;;30.75;52.58;101369.56;1650777;85;21164;-77
2022/07/20 06:14:07;;;;;;;7.90;4.92;;;;;;;30.93;52.04;101368.41;1622318;86;21077;-77
2022/07/20 06:16:33;;;;;;;6.90;5.25;;;;;;;31.12;51.71;101368.94;1642318;87;21070;-77
2022/07/20 06:19:00;;;;;;;7.33;4.97;;;;;;;31.32;51.26;101363.95;1645664;85;21058;-77
2022/07/20 06:21:26;;;;;;;7.62;4.75;;;;;;;31.54;50.94;101367.68;1631429;86;27033;-78
2022/07/20 06:23:52;;;;;;;5.55;4.97;;;;;;;31.81;50.60;101367.44;1649158;85;21093;-79
2022/07/20 06:26:20;;;;;;;5.85;4.67;;;;;;;32.09;50.15;101369.20;1627205;85;20965;-79
2022/07/20 06:28:49;;;;;;;5.95;4.30;;;;;;;32.39;49.79;101375.30;1643090;86;21140;-78
2022/07/20 06:31:14;;;;;;;;;;;;;;;32.69;49.28;101375.01;1648839;86;21058;-78
2022/07/20 06:33:41;;;;;;;5.05;4.55;;;;;;;33.01;48.62;101376.37;1663274;85;20190;-78
2022/07/20 06:36:08;;;;;;;;;;;;;;;33.19;48.47;101379.41;1653997;86;21058;-78
2022/07/20 06:38:35;;;;;;;5.62;3.95;;;;;;;33.40;47.96;101373.73;1646268;86;20559;-78
2022/07/20 06:41:02;;;;;;;10.80;3.90;;;;;;;33.67;47.73;101370.11;1628084;85;20907;-78
2022/07/20 06:43:28;;;;;;;9.05;3.87;;;;;;;33.78;46.87;101378.41;1655025;85;20919;-78
2022/07/20 06:45:54;;;;;;;7.97;4.10;;;;;;;33.89;46.32;101384.86;1645859;85;20911;-78
2022/07/20 06:48:20;;;;;;;9.03;3.80;;;;;;;33.99;45.86;101382.08;1641466;85;20959;-78
2022/07/20 06:50:48;;;;;;;4.85;4.35;;;;;;;34.22;45.51;101377.85;1643843;86;20944;-78
2022/07/20 06:53:15;;;;;;;6.62;3.87;;;;;;;34.33;44.72;101376.73;1654269;85;20959;-78
2022/07/20 06:55:41;;;;;;;5.42;3.67;;;;;;;34.50;44.28;101377.15;1654390;86;25312;-78
2022/07/20 06:58:07;;;;;;;6.03;3.92;;;;;;;34.71;43.97;101376.22;1652986;85;21443;-78
2022/07/20 07:00:33;;;;;;;5.80;4.60;;;;;;;35.00;43.44;101380.34;1655840;85;21357;-78
2022/07/20 07:02:59;;;;;;;10.65;4.20;;;;;;;35.12;42.63;101383.05;1668969;85;20895;-78
2022/07/20 07:05:25;;;;;;;4.70;3.98;;;;;;;35.27;42.19;101384.08;1655624;85;20987;-78
2022/07/20 07:07:51;;;;;;;5.45;4.25;;;;;;;35.41;41.87;101379.88;1640538;86;20923;-78
2022/07/20 07:10:17;;;;;;;;;;;;;;;35.38;41.42;101377.53;1635538;86;20939;-78
2022/07/20 07:12:43;;;;;;;6.83;4.03;;;;;;;35.44;41.37;101376.36;1648466;86;20233;-78
2022/07/20 07:15:10;;;;;;;7.87;4.03;;;;;;;35.53;40.79;101377.20;1624875;88;21653;-78
2022/07/20 07:17:36;;;;;;;9.28;4.83;;;;;;;35.75;40.44;101377.86;1633047;85;20947;-78
2022/07/20 07:20:04;;;;;;;6.85;4.10;;;;;;;36.03;39.88;101379.66;1622108;88;21590;-78
2022/07/20 07:22:30;;;;;;;7.00;4.20;;;;;;;36.38;39.50;101383.80;1616853;87;20932;-78
2022/07/20 07:24:56;;;;;;;5.05;4.05;;;;;;;36.67;38.92;101382.30;1609879;87;20935;-78
2022/07/20 07:27:22;;;;;;;;;;;;;;;36.81;38.72;101378.89;1614457;87;20960;-79
2022/07/20 07:29:48;;;;;;;7.70;4.05;;;;;;;37.08;38.96;101377.51;1643693;85;20154;-78
2022/07/20 07:32:15;;;;;;;6.58;4.00;;;;;;;37.47;38.26;101379.24;1679296;84;20940;-78
2022/07/20 07:34:41;;;;;;;7.28;4.62;;;;;;;37.70;37.75;101378.22;1692430;84;21101;-78
2022/07/20 07:37:07;;;;;;;7.20;4.70;;;;;;;37.90;37.30;101374.48;1637586;85;20947;-78
2022/07/20 07:39:34;;;;;;;9.95;4.45;;;;;;;38.16;36.98;101369.97;1637011;87;20899;-76
2022/07/20 07:42:00;;;;;;;11.70;5.22;;;;;;;38.42;36.37;101376.25;1636310;87;20962;-75
2022/07/20 07:44:26;;;;;;;9.95;4.53;;;;;;;38.55;36.00;101376.39;1623176;86;20938;-75
2022/07/20 07:46:52;;;;;;;;;;;;;;;38.63;35.56;101374.12;1655071;86;21455;-75
2022/07/20 07:49:18;;;;;;;10.70;3.90;;;;;;;38.74;35.42;101374.47;1638051;85;20108;-76
2022/07/20 07:51:44;;;;;;;;;;;;;;;38.80;34.78;101372.87;1624645;87;21781;-75
2022/07/20 07:54:10;;;;;;;6.62;3.95;;;;;;;38.78;35.12;101370.87;1615521;87;20113;-76
2022/07/20 07:56:37;;;;;;;8.35;4.35;;;;;;;38.76;34.30;101365.33;1649869;86;20978;-77
2022/07/20 07:59:03;;;;;;;;;;;;;;;38.73;33.80;101363.33;1637993;86;20931;-77
2022/07/20 08:01:30;;;;;;;5.45;4.42;;;;;;;38.72;33.80;101359.47;1634402;85;20763;-76
2022/07/20 08:03:56;;;;;;;5.90;4.30;;;;;;;38.72;33.23;101361.66;1646959;84;20887;-76
2022/07/20 08:06:22;;;;;;;8.88;4.12;;;;;;;38.81;32.74;101359.67;1636267;87;20931;-76
2022/07/20 08:08:48;;;;;;;8.00;4.28;;;;;;;39.00;32.42;101359.53;1636726;86;20966;-76
2022/07/20 08:11:15;;;;;;;6.78;4.10;;;;;;;39.00;31.76;101363.58;1623679;87;21014;-76
2022/07/20 08:13:41;;;;;;;8.05;5.00;;;;;;;39.02;31.58;101362.91;1623479;85;20947;-77
2022/07/20 08:16:07;;;;;;;;;;;;;;;39.19;31.15;101360.78;1618138;87;20966;-77
2022/07/20 08:18:33;;;;;;;4.60;4.08;;;;;;;39.33;31.41;101358.01;1619573;87;20185;-77
2022/07/20 08:21:02;;;;;;;7.78;4.37;;;;;;;39.44;30.90;101358.52;1638853;87;21113;-77
2022/07/20 08:23:28;;;;;;;7.42;4.15;;;;;;;39.60;30.44;101358.23;1624652;87;21122;-76
2022/07/20 08:25:54;;;;;;;;;;;;;;;39.71;30.23;101358.52;1616503;87;21461;-77
2022/07/20 08:28:23;;;;;;;6.65;4.40;;;;;;;39.82;30.39;101360.36;1633326;86;20234;-77
2022/07/20 08:30:51;;;;;;;;;;;;;;;39.98;29.92;101362.80;1622101;87;21080;-77
2022/07/20 08:33:19;;;;;;;10.43;4.42;;;;;;;40.21;30.02;101361.12;1616063;87;20133;-76
2022/07/20 08:35:54;;;;;;;7.60;4.58;;;;;;;40.40;29.43;101361.77;1634452;85;21424;-77
2022/07/20 08:38:20;;;;;;;11.22;4.72;;;;;;;40.58;28.96;101361.17;1636775;86;20970;-76
2022/07/20 08:40:46;;;;;;;8.35;4.33;;;;;;;40.66;28.70;101371.84;1636816;86;21691;-77
2022/07/20 08:43:13;;;;;;;;;;;;;;;40.67;28.42;101361.31;1636220;85;20946;-76
2022/07/20 08:45:39;;;;;;;10.00;4.45;;;;;;;40.60;28.79;101365.36;1643598;86;20126;-76
2022/07/20 08:48:08;;;;;;;15.80;4.50;;;;;;;40.64;28.34;101357.12;1626211;88;20937;-76
2022/07/20 08:50:35;;;;;;;8.65;4.58;;;;;;;40.56;27.85;101360.02;1624990;86;20938;-78
2022/07/20 08:53:01;;;;;;;6.17;4.08;;;;;;;40.41;27.65;101358.02;1642050;86;21009;-77
2022/07/20 08:55:29;;;;;;;6.87;4.12;;;;;;;40.12;27.25;101347.42;1629595;86;21088;-75
2022/07/20 08:57:56;;;;;;;6.28;4.17;;;;;;;39.89;27.12;101349.89;1625326;86;20918;-75
2022/07/20 09:00:22;;;;;;;10.70;4.28;;;;;;;39.38;26.16;101353.36;1625357;86;20930;-76
2022/07/20 09:02:52;;;;;;;8.13;4.28;;;;;;;38.89;26.17;101351.44;1644299;86;21004;-76
2022/07/20 09:05:20;;;;;;;9.28;4.03;;;;;;;38.51;26.17;101351.28;1632349;86;20998;-76
2022/07/20 09:07:52;;;;;;;12.13;4.42;;;;;;;38.03;25.90;101346.28;1646043;84;21092;-76
2022/07/20 09:10:24;;;;;;;9.50;5.08;;;;;;;37.60;25.98;101349.27;1642789;86;20918;-76
2022/07/20 09:12:57;;;;;;;16.82;5.75;;;;;;;37.25;25.89;101348.59;1639489;86;21073;-76
2022/07/20 09:15:43;;;;;;;5.70;4.62;;;;;;;36.85;25.76;101337.59;1646134;85;21553;-75
2022/07/20 09:18:20;;;;;;;9.15;4.47;;;;;;;36.49;25.74;101340.78;1645469;86;21096;-75
2022/07/20 09:21:08;;;;;;;9.03;4.20;;;;;;;36.22;25.72;101346.63;1630354;86;21124;-75
2022/07/20 09:23:44;;;;;;;14.28;4.35;;;;;;;36.02;25.72;101347.02;1631967;86;21072;-75
2022/07/20 09:26:15;;;;;;;9.30;4.05;;;;;;;35.78;25.63;101348.42;1643352;85;21121;-75
2022/07/20 09:28:55;;;;;;;5.45;4.08;;;;;;;35.55;25.59;101347.44;1666550;86;21022;-75
2022/07/20 09:31:34;;;;;;;9.68;4.40;;;;;;;35.38;25.59;101344.75;1623810;87;21077;-75
2022/07/20 09:34:17;;;;;;;6.00;4.12;;;;;;;35.22;25.54;101347.94;1644043;85;21144;-75
2022/07/20 09:36:47;;;;;;;10.82;4.33;;;;;;;35.07;25.52;101342.37;1644774;85;21082;-75
2022/07/20 09:39:19;;;;;;;14.07;4.50;;;;;;;34.91;25.38;101347.22;1636516;85;21070;-75
2022/07/20 09:41:56;;;;;;;10.72;4.53;;;;;;;34.73;25.37;101341.97;1626430;87;21873;-75
2022/07/20 09:44:30;;;;;;;10.63;4.25;;;;;;;34.56;25.47;101337.55;1634339;87;21065;-75
2022/07/20 09:46:58;;;;;;;7.17;4.10;;;;;;;34.48;25.52;101337.52;1643323;86;21052;-75
2022/07/20 09:49:34;;;;;;;9.38;4.25;;;;;;;34.34;25.43;101336.80;1656189;86;21077;-75
2022/07/20 09:52:02;;;;;;;8.78;3.85;;;;;;;34.18;25.47;101334.38;1617332;87;20986;-75
2022/07/20 09:54:29;;;;;;;7.08;3.70;;;;;;;34.11;25.46;101324.44;1646617;86;21041;-75
2022/07/20 09:56:56;;;;;;;4.25;3.77;;;;;;;34.06;25.58;101324.91;1627828;87;21074;-75
2022/07/20 09:59:22;;;;;;;9.85;4.22;;;;;;;34.04;25.57;101330.10;1620955;87;21392;-75
2022/07/20 10:01:52;;;;;;;6.28;4.10;;;;;;;34.04;25.61;101328.26;1630511;87;21083;-75
2022/07/20 10:04:19;;;;;;;8.43;4.00;;;;;;;34.02;25.57;101322.70;1628609;87;21069;-75
2022/07/20 10:06:48;;;;;;;5.78;3.92;;;;;;;33.98;25.54;101318.16;1618428;87;21780;-75
2022/07/20 10:09:15;;;;;;;8.88;4.22;;;;;;;33.98;25.60;101317.31;1640031;87;20891;-75
2022/07/20 10:11:41;;;;;;;8.68;4.50;;;;;;;33.98;25.58;101320.84;1659302;84;20951;-76
2022/07/20 10:14:08;;;;;;;4.70;4.17;;;;;;;33.89;25.48;101315.09;1628009;87;20939;-74
2022/07/20 10:16:48;;;;;;;7.10;4.17;;;;;;;33.85;25.56;101316.41;1638719;87;21372;-74
2022/07/20 10:19:14;;;;;;;9.88;4.33;;;;;;;33.86;25.59;101318.93;1626218;87;20911;-74
2022/07/20 10:21:51;;;;;;;7.92;4.03;;;;;;;33.91;25.61;101322.98;1652510;86;20931;-74
2022/07/20 10:24:30;;;;;;;4.40;4.00;;;;;;;33.91;25.59;101318.45;1639143;86;20934;-74
2022/07/20 10:27:25;;;;;;;7.35;4.40;;;;;;;33.94;25.54;101319.98;1624568;87;20986;-74
2022/07/20 10:29:54;;;;;;;5.97;4.60;;;;;;;33.90;25.43;101313.25;1655093;85;20954;-74
2022/07/20 10:32:28;;;;;;;7.15;4.37;;;;;;;33.85;25.51;101315.06;1629604;85;21321;-75
2022/07/20 10:35:01;;;;;;;9.25;4.42;;;;;;;33.84;25.53;101316.06;1631992;87;20964;-74
2022/07/20 10:37:39;;;;;;;8.25;5.17;;;;;;;33.77;25.45;101307.80;1615537;87;20994;-77
2022/07/20 10:40:18;;;;;;;18.07;4.80;;;;;;;33.68;25.41;101306.57;1623749;87;21048;-77
2022/07/20 10:42:53;;;;;;;7.03;4.70;;;;;;;33.61;25.39;101301.49;1674113;85;21088;-75
2022/07/20 10:45:27;;;;;;;11.73;4.85;;;;;;;33.58;25.35;101299.96;1615930;88;21008;-76
2022/07/20 10:48:11;;;;;;;9.58;4.58;;;;;;;33.58;25.32;101294.60;1653797;83;21041;-75
2022/07/20 10:50:44;;;;;;;9.20;4.72;;;;;;;33.60;25.25;101297.97;1634754;87;21085;-76
2022/07/20 10:53:20;;;;;;;5.85;4.30;;;;;;;33.53;25.20;101299.09;1658021;83;22202;-75
2022/07/20 10:55:55;;;;;;;5.17;4.50;;;;;;;33.48;25.36;101304.08;1669042;84;21085;-74
2022/07/20 10:58:28;;;;;;;5.97;3.35;;;;;;;33.49;25.31;101299.06;1659719;84;20977;-77
2022/07/20 11:00:57;;;;;;;9.10;3.83;;;;;;;33.51;25.37;101299.75;1636200;85;21109;-75
2022/07/20 11:03:30;;;;;;;7.62;4.17;;;;;;;33.57;25.46;101295.59;1665694;84;21127;-75
2022/07/20 11:06:13;;;;;;;8.13;4.08;;;;;;;33.64;25.43;101298.50;1662264;84;21108;-77
2022/07/20 11:08:52;;;;;;;10.48;4.33;;;;;;;33.64;25.44;101303.36;1663502;84;21076;-75
2022/07/20 11:11:27;;;;;;;9.30;3.85;;;;;;;33.59;25.42;101293.60;1668000;85;21506;-75
2022/07/20 11:13:54;;;;;;;4.72;4.22;;;;;;;33.57;25.42;101300.96;1673572;84;20978;-75
2022/07/20 11:16:23;;;;;;;10.35;4.58;;;;;;;33.54;25.36;101297.25;1677755;84;21061;-75
2022/07/20 11:18:51;;;;;;;5.53;3.98;;;;;;;33.55;25.46;101294.91;1658935;84;21072;-75
2022/07/20 11:21:28;;;;;;;6.50;4.50;;;;;;;33.64;25.57;101294.47;1662449;85;21048;-75
2022/07/20 11:23:54;;;;;;;5.50;4.42;;;;;;;33.68;25.32;101298.02;1628807;87;20997;-75
2022/07/20 11:26:22;;;;;;;7.65;4.78;;;;;;;33.71;25.34;101298.20;1615055;87;21083;-75
2022/07/20 11:28:57;;;;;;;6.97;4.95;;;;;;;33.73;25.36;101292.19;1624041;87;21473;-75
2022/07/20 11:31:30;;;;;;;7.90;4.37;;;;;;;33.76;25.36;101293.20;1673408;85;20986;-75
2022/07/20 11:33:58;;;;;;;5.62;4.75;;;;;;;33.81;25.31;101294.91;1675338;84;21545;-75
2022/07/20 11:36:28;;;;;;;6.20;5.03;;;;;;;33.85;25.32;101290.41;1660806;85;20946;-75